Terminal Aerodrome Forecast
Issued by NWS Detroit/Pontiac, MI

Home | Current Version | Previous Version | Text Only | Print | Product List | Glossary On
Versions: 1 2 3 4 5 6 7 8 9 10 11 12
000
FTUS43 KDTX 121700
TAFFNT
TAF
KFNT 121728Z 1218/1318 20010KT P6SM SCT060 BKN150
     FM122300 22007KT P6SM -SHRA SCT040 BKN060 OVC100
     FM130400 24005KT 3SM TSRA BKN008 OVC015CB
     FM130800 25010KT P6SM OVC020=

USA.gov is the U.S. government's official web portal to all federal, state and local government web resources and services.